Spring Park, MN (55384)

3:43 AM CDT on October 01, 2014 (GMT -0500)
Spring Park Bay | Change Station
CLOSE
Current Station
Personal Weather Station
Location: Mound, MN
Elevation: 956 ft
Nearby Weather Stations

Elev 956 ft 44.93 °N, 93.63 °W | Updated 8 seconds ago

Partly Cloudy
Partly Cloudy
53.9 °F
Feels Like 53.9 °F
N
16.1
Wind Variable Wind from SE
Gusts 23.0 mph

Today
High -- | Low -- °F
--% Chance of Precip.
Yesterday
High -- | Low -- °F
Precip. -- in
7:12 AM 6:54 PM
Waxing Crescent, 45% visible
Pressure 30.11 in
Visibility 7.0 miles
Clouds Few 1200 ft
Dew Point 50 °F
Humidity 87%
Rainfall 0.00 in
Snow Depth Not available.
UV 0 out of 12
Pollen .90 out of 12
Ozone Good
PM2.5 Good
Flu Activity Not available.
METAR KFCM 300753Z AUTO 09008KT 7SM FEW012 06/04 A3009 RMK AO2 SLP194 T00610044

More Conditions Fewer Conditions

Pressure 30.11 in
Visibility 7.0 miles
Clouds Few 1200 ft
Dew Point 50 °F
Humidity 87%
Rainfall 0.00 in
Snow Depth Not available.
UV 0 out of 12
Pollen .90 out of 12
Ozone Good
PM2.5 Good
Flu Activity Not available.
METAR KFCM 300753Z AUTO 09008KT 7SM FEW012 06/04 A3009 RMK AO2 SLP194 T00610044

More Conditions Fewer Conditions

10-Day Weather Forecast

Almanac

Astronomy

Oct. 01, 2014 Rise Set
Actual Time 7:12 AM CDT 6:54 PM CDT
Civil Twilight 6:43 AM CDT 7:24 PM CDT
Nautical Twilight 6:09 AM CDT 7:58 PM CDT
Astronomical Twilight 5:34 AM CDT 8:32 PM CDT
Moon 2:25 PM CDT No Moon Set
Length of Visible Light 12h 40m
Length of Day
11h 42m
Tomorrow will be 3m 6s shorter.
Waxing Crescent, 45% of the Moon is Illuminated
Today
Waxing Crescent
Oct 1
First Quarter
Oct 8
Full
Oct 15
Last Quarter
Oct 23
New

Today's Extremes

State Highs State Lows

Community

WunderPhotos

Upload Photos

1,757,902 photos uploaded!

Nearby

Air Quality

  Air Quality AQ Index Pollutant
Yesterday Good
OZONE
Yesterday Good
PM2.5
Current Good
PM2.5
Current Good
OZONE
Wednesday Good
PM2.5
Wednesday Good
OZONE
Thursday Good
OZONE
Thursday Good
PM2.5
Friday Good
OZONE
Friday Good
PM2.5
Saturday Good
OZONE
Saturday Good
PM2.5
Sunday Good
OZONE
Sunday Good
PM2.5

Snow Depth

Station Depth Elevation
No new snow has been reported.

Earthquake Activity

City Distance Mag. Time & Date
No recent earthquake activity has been reported nearby.
Minimum magnitude displayed is 2.5.

Coastal Water Temperatures

Place Temperature
No Stations Reporting

Nearby Weather Stations